Terminal Aerodrome Forecast
Issued by NWS

Home | Current Version | Previous Version | Text Only | Print | Product List | Glossary On
Versions: 1 2 3 4 5 6 7 8 9 10 11 12 13 14 15 16 17 18 19 20 21 22 23 24
000
FTUS45 KBOU 281136
TAFAPA
TAF
KAPA 281136Z 2812/2912 26006KT P6SM SKC
     FM281600 VRB05KT P6SM SKC
     FM281900 08008KT P6SM FEW120
     FM282300 10011KT P6SM FEW120 SCT200
     FM290300 14011KT P6SM FEW120 SCT200
     FM290600 18011KT P6SM SCT200=

USA.gov is the U.S. government's official web portal to all federal, state and local government web resources and services.